createdAt,value
2023-01-30T00:02:26.152Z,1.33
2023-01-30T00:05:12.017Z,1.65
2023-01-30T00:07:57.808Z,1.40
2023-01-30T00:10:44.356Z,1.30
2023-01-30T00:13:29.796Z,2.15
2023-01-30T00:16:15.846Z,1.08
2023-01-30T00:19:01.045Z,0.73
2023-01-30T00:21:46.409Z,0.60
2023-01-30T00:24:32.020Z,1.25
2023-01-30T00:27:17.719Z,0.65
2023-01-30T00:30:04.215Z,1.05
2023-01-30T00:32:58.510Z,1.95
2023-01-30T00:35:52.787Z,1.25
2023-01-30T00:38:38.775Z,1.13
2023-01-30T00:41:23.986Z,1.30
2023-01-30T00:44:09.430Z,1.88
2023-01-30T00:46:54.871Z,0.88
2023-01-30T00:49:40.692Z,1.42
2023-01-30T00:52:26.259Z,2.85
2023-01-30T00:55:11.638Z,2.83
2023-01-30T00:57:56.914Z,1.02
2023-01-30T01:00:42.190Z,2.20
2023-01-30T01:03:27.853Z,1.90
2023-01-30T01:06:13.958Z,0.68
2023-01-30T01:08:59.283Z,1.52
2023-01-30T01:11:44.732Z,1.83
2023-01-30T01:14:30.255Z,1.48
2023-01-30T01:17:16.157Z,1.02
2023-01-30T01:20:01.732Z,1.05
2023-01-30T01:22:48.081Z,1.33
2023-01-30T01:25:33.596Z,0.70
2023-01-30T01:28:19.028Z,0.65
2023-01-30T01:31:16.784Z,2.08
2023-01-30T01:34:02.729Z,0.75
2023-01-30T01:36:53.672Z,1.20
2023-01-30T01:39:39.923Z,0.80
2023-01-30T01:42:36.557Z,0.60
2023-01-30T01:45:25.694Z,0.60
2023-01-30T01:48:26.958Z,1.15
2023-01-30T01:51:20.338Z,0.80
2023-01-30T01:54:21.567Z,0.82
2023-01-30T01:57:18.679Z,0.77
2023-01-30T02:00:13.968Z,2.28
2023-01-30T02:03:06.161Z,1.60
2023-01-30T02:05:58.914Z,2.10
2023-01-30T02:08:55.470Z,1.10
2023-01-30T02:11:57.219Z,0.85
2023-01-30T02:14:44.208Z,0.82
2023-01-30T02:17:29.783Z,2.08
2023-01-30T02:21:17.812Z,0.80
2023-01-30T02:24:47.479Z,1.42
2023-01-30T02:28:06.947Z,1.02
2023-01-30T02:31:17.395Z,1.85
2023-01-30T02:34:46.105Z,0.90
2023-01-30T02:38:30.691Z,2.03
2023-01-30T02:41:36.689Z,1.70
2023-01-30T02:44:42.588Z,1.27
2023-01-30T02:47:42.271Z,1.42
2023-01-30T02:50:55.600Z,2.45
2023-01-30T02:53:41.271Z,2.30
2023-01-30T02:56:27.618Z,1.73
2023-01-30T02:59:17.728Z,1.15
2023-01-30T03:02:30.313Z,1.42
2023-01-30T03:05:30.917Z,2.72
2023-01-30T03:08:44.165Z,2.25
2023-01-30T03:12:15.652Z,1.60
2023-01-30T03:15:18.332Z,2.80
2023-01-30T03:18:04.781Z,1.23
2023-01-30T03:20:50.677Z,2.80
2023-01-30T03:23:36.187Z,1.42
2023-01-30T03:26:30.236Z,1.35
2023-01-30T03:29:15.991Z,2.03
2023-01-30T03:32:01.908Z,1.75
2023-01-30T03:34:47.676Z,1.85
2023-01-30T03:37:33.203Z,2.00
2023-01-30T03:40:19.113Z,2.55
2023-01-30T03:43:04.705Z,2.17
2023-01-30T03:45:50.273Z,2.65
2023-01-30T05:50:10.824Z,3.95
2023-01-30T05:52:56.605Z,3.97
2023-01-30T05:55:42.527Z,3.60
2023-01-30T05:58:30.703Z,3.40
2023-01-30T06:01:16.508Z,3.28
2023-01-30T06:04:01.926Z,2.35
2023-01-30T06:06:50.143Z,3.38
2023-01-30T06:09:35.942Z,2.55
2023-01-30T06:12:21.332Z,4.15
2023-01-30T06:15:07.730Z,3.17
2023-01-30T06:17:53.368Z,5.45
2023-01-30T06:20:39.028Z,3.33
2023-01-30T06:23:24.887Z,4.28
2023-01-30T06:26:10.503Z,3.30
2023-01-30T06:28:56.148Z,4.25
2023-01-30T06:31:41.685Z,2.90
2023-01-30T06:34:27.246Z,3.15
2023-01-30T06:37:12.921Z,4.25
2023-01-30T06:39:58.298Z,3.33
2023-01-30T06:42:48.878Z,1.75
2023-01-30T06:45:34.290Z,2.60
2023-01-30T06:48:20.114Z,3.33
2023-01-30T06:51:06.685Z,1.88
2023-01-30T06:53:53.410Z,3.65
2023-01-30T06:56:39.228Z,5.80
2023-01-30T06:59:24.765Z,5.60
2023-01-30T07:02:13.104Z,5.35
2023-01-30T07:04:58.793Z,5.95
2023-01-30T07:07:44.198Z,5.25
2023-01-30T07:10:29.502Z,3.83
2023-01-30T07:13:14.824Z,7.00
2023-01-30T07:16:00.396Z,6.50
2023-01-30T07:18:45.833Z,4.70
2023-01-30T07:21:32.098Z,5.72
2023-01-30T07:24:17.799Z,3.47
2023-01-30T07:27:03.243Z,3.67
2023-01-30T07:29:48.785Z,3.58
2023-01-30T07:32:34.259Z,3.40
2023-01-30T07:35:21.532Z,7.13
2023-01-30T07:38:07.537Z,5.38
2023-01-30T07:40:53.044Z,6.95
2023-01-30T07:43:38.486Z,3.83
2023-01-30T07:46:23.749Z,6.75
2023-01-30T07:49:10.619Z,4.45
2023-01-30T07:51:56.268Z,3.88
2023-01-30T07:54:42.248Z,4.30
2023-01-30T07:57:27.691Z,3.72
2023-01-30T08:00:14.539Z,5.18
2023-01-30T08:03:00.346Z,5.18
2023-01-30T08:05:46.575Z,4.53
2023-01-30T08:08:32.229Z,5.38
2023-01-30T08:11:17.555Z,5.53
2023-01-30T08:14:03.270Z,7.95
2023-01-30T08:16:48.650Z,4.63
2023-01-30T08:19:34.184Z,3.65
2023-01-30T08:22:19.545Z,4.78
2023-01-30T08:25:05.956Z,4.88
2023-01-30T08:27:52.224Z,3.90
2023-01-30T08:30:37.800Z,5.88
2023-01-30T08:33:24.681Z,5.53
2023-01-30T08:36:10.349Z,5.57
2023-01-30T08:38:56.058Z,4.93
2023-01-30T08:41:41.580Z,5.32
2023-01-30T08:44:26.917Z,5.60
2023-01-30T08:47:12.397Z,4.78
2023-01-30T08:49:57.777Z,3.22
2023-01-30T08:52:43.247Z,3.63
2023-01-30T08:55:29.497Z,1.95
2023-01-30T08:58:14.689Z,4.18
2023-01-30T09:01:06.775Z,3.75
2023-01-30T09:03:52.442Z,1.65
2023-01-30T09:06:37.867Z,3.65
2023-01-30T09:09:23.268Z,4.03
2023-01-30T09:12:08.765Z,3.47
2023-01-30T09:14:54.116Z,3.47
2023-01-30T09:17:39.831Z,2.45
2023-01-30T09:20:25.305Z,3.70
2023-01-30T09:23:10.953Z,3.35
2023-01-30T09:25:56.389Z,3.58
2023-01-30T09:28:41.752Z,5.80
2023-01-30T09:31:27.278Z,4.30
2023-01-30T09:34:13.057Z,4.95
2023-01-30T09:36:59.819Z,3.78
2023-01-30T09:39:45.369Z,5.35
2023-01-30T09:43:01.431Z,6.05
2023-01-30T09:46:08.445Z,5.13
2023-01-30T09:49:09.227Z,4.95
2023-01-30T09:52:08.695Z,4.10
2023-01-30T09:55:26.453Z,4.82
2023-01-30T09:58:22.910Z,4.15
2023-01-30T10:01:27.435Z,3.58
2023-01-30T10:04:39.060Z,3.35
2023-01-30T10:08:00.088Z,4.97
2023-01-30T10:11:10.489Z,6.88
2023-01-30T10:14:36.312Z,4.28
2023-01-30T10:18:12.356Z,6.03
2023-01-30T10:21:55.196Z,5.60
2023-01-30T10:25:23.104Z,5.55
2023-01-30T10:28:29.937Z,7.75
2023-01-30T10:31:18.966Z,4.10
2023-01-30T10:34:12.560Z,5.88
2023-01-30T10:37:14.985Z,6.20
2023-01-30T10:40:59.141Z,6.50
2023-01-30T10:44:18.155Z,5.35
2023-01-30T10:47:23.136Z,4.13
2023-01-30T10:50:23.808Z,4.53
2023-01-30T10:53:42.154Z,5.85
2023-01-30T10:57:05.795Z,2.60
2023-01-30T11:00:03.925Z,3.95
2023-01-30T11:03:18.818Z,2.95
2023-01-30T11:06:27.708Z,5.28
2023-01-30T11:09:13.309Z,6.53
2023-01-30T11:11:58.847Z,4.78
2023-01-30T11:15:02.142Z,7.53
2023-01-30T11:17:48.109Z,4.82
2023-01-30T11:20:47.967Z,5.43
2023-01-30T11:23:41.030Z,5.18
2023-01-30T11:26:45.570Z,5.50
2023-01-30T11:29:33.929Z,2.83
2023-01-30T11:32:28.783Z,3.42
2023-01-30T11:35:14.230Z,5.13
2023-01-30T11:38:52.847Z,4.82
2023-01-30T11:41:59.807Z,4.20
2023-01-30T11:44:45.566Z,6.82
2023-01-30T11:47:31.208Z,3.83
2023-01-30T16:04:36.385Z,4.32
2023-01-30T16:07:26.925Z,4.63
2023-01-30T16:10:20.457Z,2.67
2023-01-30T16:13:07.972Z,4.30
2023-01-30T16:16:16.763Z,5.55
2023-01-30T16:19:05.006Z,4.38
2023-01-30T16:21:50.522Z,4.13
2023-01-30T16:24:37.639Z,1.80
2023-01-30T16:27:34.573Z,2.50
2023-01-30T16:30:28.758Z,4.88
2023-01-30T16:33:19.220Z,2.80
2023-01-30T16:36:33.984Z,4.47
2023-01-30T16:39:36.743Z,1.42
2023-01-30T16:42:29.227Z,3.65
2023-01-30T16:45:35.797Z,3.90
2023-01-30T16:48:39.913Z,2.30
2023-01-30T16:51:26.863Z,3.65
2023-01-30T16:54:30.316Z,4.32
2023-01-30T16:57:37.707Z,2.10
2023-01-30T17:00:35.880Z,2.47
2023-01-30T17:03:29.382Z,2.88
2023-01-30T17:06:58.770Z,2.33
2023-01-30T17:09:48.082Z,2.15
2023-01-30T17:12:38.940Z,2.30
2023-01-30T17:15:36.417Z,2.93
2023-01-30T17:18:21.864Z,1.83
2023-01-30T17:21:13.100Z,3.33
2023-01-30T17:24:04.256Z,2.53
2023-01-30T17:27:02.782Z,3.45
2023-01-30T17:29:51.716Z,3.63
2023-01-30T17:32:37.241Z,2.28
2023-01-30T17:35:22.789Z,3.63
2023-01-30T17:38:10.986Z,2.15
2023-01-30T17:40:56.494Z,4.07
2023-01-30T17:43:41.971Z,4.07
2023-01-30T17:46:45.729Z,3.15
2023-01-30T17:49:31.308Z,3.58
2023-01-30T17:52:16.843Z,3.80
2023-01-30T17:55:06.055Z,1.92
2023-01-30T17:57:51.355Z,2.10
2023-01-30T18:00:36.872Z,3.08
2023-01-30T18:03:22.238Z,3.22
2023-01-30T18:06:11.302Z,3.38
2023-01-30T18:08:56.945Z,3.65
2023-01-30T18:11:42.517Z,2.47
2023-01-30T18:14:31.177Z,1.60
2023-01-30T18:17:17.870Z,2.80
2023-01-30T18:20:03.333Z,1.98
2023-01-30T18:22:49.326Z,3.28
2023-01-30T18:25:34.749Z,3.05
2023-01-30T18:28:20.154Z,3.97
2023-01-30T18:31:08.891Z,2.17
2023-01-30T18:33:54.527Z,2.33
2023-01-30T18:36:39.797Z,3.22
2023-01-30T18:39:25.269Z,3.55
2023-01-30T18:42:10.624Z,3.15
2023-01-30T18:44:56.145Z,3.45
2023-01-30T18:47:41.938Z,3.53
2023-01-30T18:50:27.764Z,2.60
2023-01-30T18:53:13.243Z,3.67
2023-01-30T18:55:59.181Z,1.88
2023-01-30T18:58:44.729Z,2.40
2023-01-30T19:01:37.915Z,4.18
2023-01-30T19:04:23.876Z,2.92
2023-01-30T19:07:09.366Z,3.08
2023-01-30T19:09:55.212Z,2.95
2023-01-30T19:12:42.328Z,3.47
2023-01-30T19:15:28.367Z,2.83
2023-01-30T19:18:14.144Z,2.95
2023-01-30T19:21:13.039Z,2.33
2023-01-30T19:23:58.788Z,3.22
2023-01-30T19:26:44.703Z,2.13
2023-01-30T19:29:29.983Z,4.65
2023-01-30T19:32:15.538Z,3.08
2023-01-30T19:35:04.146Z,4.28
2023-01-30T19:37:50.034Z,3.45
2023-01-30T19:40:39.453Z,3.00
2023-01-30T19:43:25.295Z,4.18
2023-01-30T19:46:11.330Z,3.20
2023-01-30T19:48:57.555Z,2.83
2023-01-30T19:51:43.265Z,3.90
2023-01-30T19:54:29.097Z,2.40
2023-01-30T22:17:31.790Z,6.40
2023-01-30T22:20:17.771Z,4.40
2023-01-30T22:23:03.250Z,5.30
2023-01-30T22:25:55.077Z,4.78
2023-01-30T22:28:41.241Z,3.22
2023-01-30T22:31:32.316Z,3.85
2023-01-30T22:34:17.910Z,4.45
2023-01-30T22:37:03.393Z,5.78
2023-01-30T22:39:48.868Z,3.60
2023-01-30T22:42:34.763Z,6.05
2023-01-30T22:45:20.433Z,6.50
2023-01-30T22:48:06.109Z,3.25
2023-01-30T22:51:08.887Z,5.80
2023-01-30T22:53:58.582Z,4.95
2023-01-30T22:56:48.617Z,6.03
2023-01-30T22:59:34.193Z,6.57
2023-01-30T23:02:19.751Z,6.90
2023-01-30T23:05:06.077Z,7.50
2023-01-30T23:07:51.907Z,4.88
2023-01-30T23:10:40.551Z,3.28
2023-01-30T23:13:26.018Z,5.53
2023-01-30T23:16:13.894Z,5.00
2023-01-30T23:18:59.543Z,3.63
2023-01-30T23:21:46.091Z,3.30
2023-01-30T23:24:31.704Z,5.90
2023-01-30T23:27:17.398Z,4.38
2023-01-30T23:30:02.843Z,7.15
2023-01-30T23:32:48.223Z,2.88
2023-01-30T23:35:35.436Z,3.97
2023-01-30T23:38:21.094Z,7.97
2023-01-30T23:41:15.184Z,3.55
2023-01-30T23:44:01.371Z,7.30
2023-01-30T23:46:46.652Z,3.63
2023-01-30T23:49:32.089Z,6.80
2023-01-30T23:52:17.525Z,4.57
2023-01-30T23:55:02.925Z,8.48
2023-01-30T23:57:52.263Z,5.55
